Time;durP1;ratioP1;P1;durP2;ratioP2;P2;SDS_P1;SDS_P2;PMS_P1;PMS_P2;Temp;Humidity;BMP_temperature;BMP_pressure;BME280_temperature;BME280_humidity;BME280_pressure;Samples;Min_cycle;Max_cycle;Signal;HPM_P1;HPM_P2
2023/10/18 00:00:58;;;;;;;1283.23;488.67;;;4.30;99.90;;;;;;5155187;27;20053;-83
2023/10/18 00:03:25;;;;;;;1283.33;489.30;;;4.10;99.90;;;;;;5139161;27;20444;-83
2023/10/18 00:05:51;;;;;;;1250.97;431.13;;;5.10;99.90;;;;;;5154849;27;20045;-83
2023/10/18 00:08:17;;;;;;;1245.97;426.33;;;4.70;99.90;;;;;;5136297;27;20051;-83
2023/10/18 00:10:44;;;;;;;1242.20;423.83;;;3.40;99.90;;;;;;5155387;27;20131;-83
2023/10/18 00:13:11;;;;;;;1278.80;489.67;;;4.70;99.90;;;;;;5137330;27;20045;-84
2023/10/18 00:15:38;;;;;;;1277.00;493.77;;;4.10;99.90;;;;;;5151510;27;20055;-83
2023/10/18 00:18:04;;;;;;;1253.10;435.57;;;4.00;99.90;;;;;;5176157;27;20049;-83
2023/10/18 00:20:30;;;;;;;1251.37;430.43;;;4.00;99.90;;;;;;5175914;27;20406;-83
2023/10/18 00:22:57;;;;;;;1245.97;432.20;;;4.00;99.90;;;;;;5154932;27;20049;-83
2023/10/18 00:25:23;;;;;;;1266.43;489.97;;;3.40;99.90;;;;;;5154837;27;20117;-83
2023/10/18 00:27:49;;;;;;;1271.03;494.03;;;4.20;99.90;;;;;;5136318;27;20043;-82
2023/10/18 00:30:18;;;;;;;1240.20;430.33;;;3.90;99.90;;;;;;5149884;27;20050;-83
2023/10/18 00:32:46;;;;;;;1308.40;497.87;;;4.00;99.90;;;;;;5155252;27;20447;-83
2023/10/18 00:35:16;;;;;;;1275.30;431.90;;;4.10;99.90;;;;;;5132804;27;20479;-82
2023/10/18 00:37:43;;;;;;;1279.87;428.57;;;4.00;99.90;;;;;;5113079;28;20052;-83
2023/10/18 00:43:20;;;;;;;1282.23;428.10;;;4.10;99.90;;;;;;5070422;28;20044;-83
2023/10/18 00:45:53;;;;;;;1281.83;423.23;;;4.10;99.90;;;;;;5073965;28;20047;-83
2023/10/18 00:48:27;;;;;;;1318.87;491.90;;;4.70;99.90;;;;;;5094407;28;20388;-82
2023/10/18 00:50:54;;;;;;;1282.20;426.47;;;4.10;99.90;;;;;;5094171;28;20043;-82
2023/10/18 00:53:22;;;;;;;1284.37;426.67;;;4.10;99.90;;;;;;5105294;28;20055;-82
2023/10/18 00:55:59;;;;;;;1286.83;429.10;;;4.70;99.90;;;;;;5090739;28;20051;-82
2023/10/18 00:58:27;;;;;;;1324.83;492.17;;;4.50;99.90;;;;;;5090187;28;20141;-82
2023/10/18 01:00:55;;;;;;;1285.23;425.80;;;5.10;99.90;;;;;;5086440;28;20043;-82
2023/10/18 01:03:30;;;;;;;1330.03;491.57;;;4.00;99.90;;;;;;5110931;28;20040;-82
2023/10/18 01:06:08;;;;;;;;;;;4.70;99.90;;;;;;5084591;28;20423;-82
2023/10/18 01:08:38;;;;;;;1316.17;491.20;;;4.00;99.90;;;;;;5090430;28;19990;-82
2023/10/18 01:11:09;;;;;;;1282.47;428.53;;;5.50;99.90;;;;;;5073569;28;20055;-82
2023/10/18 01:13:42;;;;;;;1285.37;427.10;;;4.30;99.90;;;;;;5090269;28;20441;-82
2023/10/18 01:16:15;;;;;;;1286.30;425.70;;;4.30;99.90;;;;;;5073654;28;20048;-82
2023/10/18 01:18:43;;;;;;;1290.57;429.03;;;4.30;99.90;;;;;;5091435;28;20424;-82
2023/10/18 01:21:16;;;;;;;1288.73;429.03;;;4.30;99.90;;;;;;5095818;27;20110;-82
2023/10/18 01:23:49;;;;;;;1288.83;428.53;;;4.30;99.90;;;;;;5113251;28;20075;-82
2023/10/18 01:26:16;;;;;;;1292.07;430.23;;;4.30;99.90;;;;;;5094699;28;20046;-82
2023/10/18 01:28:42;;;;;;;1332.00;489.80;;;4.40;99.90;;;;;;5113059;28;20446;-82
2023/10/18 01:31:09;;;;;;;1335.03;494.27;;;5.20;99.90;;;;;;5118043;28;20039;-82
2023/10/18 01:33:47;;;;;;;1342.07;490.63;;;5.10;99.90;;;;;;5140313;27;20031;-82
2023/10/18 01:36:15;;;;;;;1297.67;432.57;;;4.80;99.90;;;;;;5153962;27;20035;-82
2023/10/18 01:38:52;;;;;;;1296.03;428.40;;;4.40;99.90;;;;;;5153137;27;20042;-83
2023/10/18 01:41:25;;;;;;;1301.43;431.00;;;4.50;99.90;;;;;;5153841;27;20371;-82
2023/10/18 01:43:52;;;;;;;1302.03;430.37;;;4.70;99.90;;;;;;5154119;27;20046;-82
2023/10/18 01:46:18;;;;;;;1344.23;491.93;;;4.50;99.90;;;;;;5152676;27;20054;-82
2023/10/18 01:48:50;;;;;;;1302.37;434.13;;;5.80;99.90;;;;;;5143114;27;20495;-82
2023/10/18 01:51:16;;;;;;;1300.47;433.87;;;4.80;99.90;;;;;;5128153;28;20066;-83
2023/10/18 01:53:43;;;;;;;1345.87;495.87;;;4.40;99.90;;;;;;5124654;28;20114;-83
2023/10/18 01:56:09;;;;;;;1345.70;497.23;;;3.60;99.90;;;;;;5132885;28;20049;-82
2023/10/18 01:58:38;;;;;;;1305.40;432.53;;;4.40;99.90;;;;;;5135204;27;20424;-82
2023/10/18 02:01:08;;;;;;;1307.17;433.63;;;4.80;99.90;;;;;;5135291;27;20110;-83
2023/10/18 02:03:34;;;;;;;1305.87;435.27;;;4.80;99.90;;;;;;5144960;27;20562;-82
2023/10/18 02:06:05;;;;;;;1349.00;496.53;;;5.50;99.90;;;;;;5140538;27;20038;-82
2023/10/18 02:08:31;;;;;;;1302.63;438.70;;;4.40;99.90;;;;;;5153705;27;20054;-82
2023/10/18 02:10:56;;;;;;;1344.63;498.50;;;4.50;99.90;;;;;;5157498;27;20102;-83
2023/10/18 02:13:23;;;;;;;1300.07;434.43;;;4.40;99.90;;;;;;5178400;27;20379;-82
2023/10/18 02:15:48;;;;;;;1299.53;430.60;;;3.30;99.90;;;;;;5178448;27;20048;-82
2023/10/18 02:18:14;;;;;;;1297.00;429.73;;;5.40;99.90;;;;;;5178260;27;20474;-82
2023/10/18 02:20:50;;;;;;;1337.37;493.90;;;5.80;99.90;;;;;;5142378;27;20435;-82
2023/10/18 02:23:16;;;;;;;1297.67;432.07;;;4.40;99.90;;;;;;5147773;27;20042;-82
2023/10/18 02:28:23;;;;;;;1344.47;493.27;;;5.70;99.90;;;;;;5138350;27;20099;-83
2023/10/18 02:33:38;;;;;;;1339.70;491.00;;;5.40;99.90;;;;;;5138645;27;20051;-83
2023/10/18 02:36:06;;;;;;;1295.83;425.87;;;4.90;99.90;;;;;;5138507;27;20513;-83
2023/10/18 02:38:33;;;;;;;1339.93;492.43;;;4.40;99.90;;;;;;5138082;27;20495;-82
2023/10/18 02:41:03;;;;;;;1301.07;428.33;;;4.40;99.90;;;;;;5171918;27;20078;-83
2023/10/18 02:43:29;;;;;;;1304.53;436.87;;;4.80;99.90;;;;;;5177952;27;20042;-82
2023/10/18 02:45:55;;;;;;;1348.23;495.80;;;4.40;99.90;;;;;;5177897;27;20055;-82
2023/10/18 02:48:24;;;;;;;1346.53;494.00;;;5.10;99.90;;;;;;5176713;27;20498;-84
2023/10/18 02:50:57;;;;;;;1344.97;493.97;;;4.40;99.90;;;;;;5146483;27;20403;-83
2023/10/18 02:53:23;;;;;;;1344.50;497.17;;;4.40;99.90;;;;;;5156945;27;20394;-83
2023/10/18 02:55:55;;;;;;;1349.43;493.97;;;4.40;99.90;;;;;;5138405;27;20049;-82
2023/10/18 02:58:22;;;;;;;1306.07;435.47;;;4.40;99.90;;;;;;5138061;27;20035;-83
2023/10/18 03:00:50;;;;;;;1304.27;432.30;;;4.40;99.90;;;;;;5138277;27;20129;-83
2023/10/18 03:03:15;;;;;;;1338.37;495.63;;;4.40;99.90;;;;;;5158212;27;20121;-83
2023/10/18 03:05:42;;;;;;;1337.47;493.00;;;4.30;99.90;;;;;;5176966;27;20117;-82
2023/10/18 03:08:10;;;;;;;1341.13;495.60;;;4.30;99.90;;;;;;5158670;27;20458;-83
2023/10/18 03:10:44;;;;;;;1300.13;432.53;;;5.20;99.90;;;;;;5164283;27;20043;-83
2023/10/18 03:13:11;;;;;;;1300.47;434.30;;;4.30;99.90;;;;;;5156624;27;20504;-82
2023/10/18 03:16:04;;;;;;;1341.80;496.70;;;5.00;99.90;;;;;;5137976;27;20099;-82
2023/10/18 03:18:24;;;;;;;1337.80;494.57;;;5.00;99.90;;;;;;5155458;27;20168;-83
2023/10/18 03:20:55;;;;;;;1338.37;495.03;;;4.40;99.90;;;;;;5155903;27;20102;-83
2023/10/18 03:23:22;;;;;;;1294.70;426.27;;;5.10;99.90;;;;;;5137549;27;20046;-82
2023/10/18 03:25:58;;;;;;;1294.07;431.20;;;4.40;99.90;;;;;;5137467;27;20042;-82
2023/10/18 03:28:25;;;;;;;1338.83;493.00;;;4.20;99.90;;;;;;5120447;27;20043;-83
2023/10/18 03:30:50;;;;;;;1336.07;492.93;;;4.60;99.90;;;;;;5155727;27;20039;-83
2023/10/18 03:33:16;;;;;;;1336.07;493.83;;;4.80;99.90;;;;;;5155843;27;20638;-83
2023/10/18 03:35:43;;;;;;;1293.43;429.47;;;4.20;99.90;;;;;;5137496;27;20045;-83
2023/10/18 03:38:21;;;;;;;1336.70;494.23;;;4.10;99.90;;;;;;5155946;27;20064;-82
2023/10/18 03:40:56;;;;;;;1333.17;493.23;;;4.20;99.90;;;;;;5133211;27;20114;-82
2023/10/18 03:43:32;;;;;;;1338.00;494.65;;;4.30;99.90;;;;;;5124924;27;20078;-83
2023/10/18 03:46:09;;;;;;;1340.67;497.33;;;4.90;99.90;;;;;;5155063;27;20077;-82
2023/10/18 03:48:45;;;;;;;1297.93;434.30;;;5.60;99.90;;;;;;5134857;27;20047;-82
2023/10/18 03:51:17;;;;;;;1294.73;432.20;;;4.40;99.90;;;;;;5155594;27;20046;-83
2023/10/18 03:53:43;;;;;;;1341.23;492.90;;;4.40;99.90;;;;;;5155354;27;20054;-83
2023/10/18 03:56:13;;;;;;;1295.90;426.93;;;4.50;99.90;;;;;;5155258;27;20042;-83
2023/10/18 03:58:42;;;;;;;1336.57;497.20;;;4.40;99.90;;;;;;5155541;27;20039;-83
2023/10/18 04:01:12;;;;;;;1295.77;428.90;;;4.90;99.90;;;;;;5137805;27;20045;-83
2023/10/18 04:03:39;;;;;;;1301.93;435.60;;;4.60;99.90;;;;;;5136838;27;20046;-83
2023/10/18 04:06:08;;;;;;;1302.50;431.50;;;5.20;99.90;;;;;;5155154;27;20050;-82
2023/10/18 04:08:36;;;;;;;1302.97;429.77;;;5.00;99.90;;;;;;5136482;27;20105;-83
2023/10/18 04:11:02;;;;;;;1307.63;434.67;;;5.60;99.90;;;;;;5155073;27;20467;-83
2023/10/18 04:13:31;;;;;;;1303.47;434.77;;;4.50;99.90;;;;;;5154673;27;20042;-83
2023/10/18 04:15:59;;;;;;;1306.13;437.83;;;6.00;99.90;;;;;;5136071;27;20050;-82
2023/10/18 04:18:26;;;;;;;1345.00;496.20;;;4.80;99.90;;;;;;5155138;27;20034;-83
2023/10/18 04:20:52;;;;;;;1302.03;431.20;;;4.50;99.90;;;;;;5167479;27;20110;-83
2023/10/18 04:23:19;;;;;;;1308.40;438.27;;;5.00;99.90;;;;;;5157009;27;20401;-83
2023/10/18 04:25:58;;;;;;;1344.57;495.80;;;4.40;99.90;;;;;;5175600;27;20050;-82
2023/10/18 04:28:25;;;;;;;1301.00;431.67;;;5.10;99.90;;;;;;5173025;27;20053;-84
2023/10/18 04:31:00;;;;;;;1299.87;432.37;;;4.70;99.90;;;;;;5154691;27;20034;-83
2023/10/18 04:33:36;;;;;;;1296.82;431.30;;;4.50;99.90;;;;;;5135797;27;20121;-83
2023/10/18 04:36:06;;;;;;;1345.70;495.03;;;4.40;99.90;;;;;;5170728;27;20042;-83
2023/10/18 04:38:36;;;;;;;1342.70;495.73;;;5.00;99.90;;;;;;5176075;27;20046;-83
2023/10/18 04:41:08;;;;;;;1303.60;429.03;;;4.80;99.90;;;;;;5175275;27;20049;-82
2023/10/18 04:43:34;;;;;;;1305.67;437.63;;;4.70;99.90;;;;;;5175442;27;20570;-83
2023/10/18 04:51:27;;;;;;;1344.37;496.43;;;5.20;99.90;;;;;;5154510;27;20085;-83
2023/10/18 04:53:56;;;;;;;1304.80;428.03;;;4.50;99.90;;;;;;5144588;27;20520;-83
2023/10/18 04:56:29;;;;;;;1305.40;434.60;;;4.10;99.90;;;;;;5158014;27;20130;-83
2023/10/18 04:58:59;;;;;;;1350.63;496.17;;;5.20;99.90;;;;;;5135646;27;20053;-83
2023/10/18 05:01:33;;;;;;;1306.30;434.83;;;4.40;99.90;;;;;;5154844;27;20066;-82
2023/10/18 05:04:00;;;;;;;1309.90;440.03;;;4.70;99.90;;;;;;5135513;27;20076;-82
2023/10/18 05:06:29;;;;;;;1348.50;499.67;;;4.50;99.90;;;;;;5154350;27;20051;-82
2023/10/18 05:08:56;;;;;;;1307.67;433.73;;;4.80;99.90;;;;;;5153868;27;20046;-82
2023/10/18 05:11:25;;;;;;;1353.33;497.43;;;5.60;99.90;;;;;;5154022;27;20046;-82
2023/10/18 05:13:56;;;;;;;1307.83;434.40;;;5.30;99.90;;;;;;5135681;27;20038;-83
2023/10/18 05:16:26;;;;;;;1303.33;433.03;;;4.40;99.90;;;;;;5125981;27;20550;-82
2023/10/18 05:18:52;;;;;;;1347.63;494.13;;;5.10;99.90;;;;;;5156812;27;20069;-83
2023/10/18 05:21:20;;;;;;;1306.53;440.30;;;4.40;99.90;;;;;;5139694;27;20077;-82
2023/10/18 05:23:46;;;;;;;1309.17;433.20;;;4.40;99.90;;;;;;5154557;27;20099;-83
2023/10/18 05:26:18;;;;;;;1305.77;443.03;;;4.90;99.90;;;;;;5135543;27;20042;-82
2023/10/18 05:28:47;;;;;;;1307.47;436.53;;;4.50;99.90;;;;;;5114939;28;20047;-83
2023/10/18 05:34:18;;;;;;;1304.50;435.93;;;4.50;99.90;;;;;;5153961;27;20403;-82
2023/10/18 05:41:45;;;;;;;1301.30;439.67;;;5.90;99.90;;;;;;5159427;27;20125;-82
2023/10/18 05:44:12;;;;;;;1347.47;497.67;;;5.00;99.90;;;;;;5156330;27;20042;-83
2023/10/18 05:46:39;;;;;;;1305.77;435.00;;;5.20;99.90;;;;;;5177230;27;20056;-82
2023/10/18 05:49:15;;;;;;;1302.67;433.00;;;5.60;99.90;;;;;;5159988;27;20044;-83
2023/10/18 05:51:53;;;;;;;1340.00;497.80;;;4.60;99.90;;;;;;5163112;27;20099;-83
2023/10/18 05:54:22;;;;;;;1300.83;432.07;;;5.50;99.90;;;;;;5158344;27;20070;-83
2023/10/18 05:56:53;;;;;;;1308.23;437.03;;;4.90;99.90;;;;;;5139497;27;20042;-84
2023/10/18 06:01:45;;;;;;;1349.13;500.40;;;5.70;99.90;;;;;;5158098;27;20039;-82
2023/10/18 06:04:13;;;;;;;1309.53;441.30;;;4.80;99.90;;;;;;5178560;27;20042;-82
2023/10/18 06:06:39;;;;;;;1351.17;500.83;;;5.10;99.90;;;;;;5157176;27;20066;-83
2023/10/18 06:09:11;;;;;;;1352.63;500.87;;;5.50;99.90;;;;;;5157221;27;20054;-84
2023/10/18 06:11:37;;;;;;;1306.93;437.70;;;5.00;99.90;;;;;;5127686;27;20042;-82
2023/10/18 06:14:16;;;;;;;1309.93;440.87;;;5.60;99.90;;;;;;5157376;27;20383;-83
2023/10/18 06:16:42;;;;;;;1345.97;501.03;;;5.60;99.90;;;;;;5138806;27;20133;-83
2023/10/18 06:19:13;;;;;;;1308.77;435.73;;;4.70;99.90;;;;;;5157071;27;20038;-84
2023/10/18 06:21:55;;;;;;;1347.63;494.93;;;4.70;99.90;;;;;;5163078;27;20151;-83
2023/10/18 06:24:21;;;;;;;1310.80;437.27;;;5.70;99.90;;;;;;5159640;27;20043;-84
2023/10/18 06:26:52;;;;;;;1352.73;499.67;;;4.70;99.90;;;;;;5159794;27;20059;-82
2023/10/18 06:29:24;;;;;;;1348.83;499.00;;;4.70;99.90;;;;;;5145717;27;20112;-84
2023/10/18 06:31:50;;;;;;;1302.87;439.57;;;5.00;99.90;;;;;;5121088;27;20049;-84
2023/10/18 06:34:22;;;;;;;1318.70;443.07;;;5.60;99.90;;;;;;5142523;27;20030;-85
2023/10/18 06:36:52;;;;;;;1350.03;497.40;;;5.10;99.90;;;;;;5157768;27;20738;-85
2023/10/18 06:39:25;;;;;;;1356.20;499.93;;;5.70;99.90;;;;;;5125571;27;20038;-84
2023/10/18 06:41:55;;;;;;;1312.97;435.07;;;5.10;99.90;;;;;;5160358;27;20469;-85
2023/10/18 06:44:27;;;;;;;1357.30;495.07;;;5.10;99.90;;;;;;5117616;27;20498;-83
2023/10/18 06:46:53;;;;;;;1305.70;432.27;;;5.40;99.90;;;;;;5136501;27;20057;-83
2023/10/18 06:49:19;;;;;;;1359.37;499.47;;;5.10;99.90;;;;;;5117691;27;20050;-84
2023/10/18 06:51:50;;;;;;;1354.87;498.97;;;4.80;99.90;;;;;;5124649;27;20135;-86
2023/10/18 06:54:23;;;;;;;1309.13;435.07;;;4.80;99.90;;;;;;5156941;27;20107;-85
2023/10/18 06:56:53;;;;;;;1317.30;437.30;;;5.00;99.90;;;;;;5137649;27;20499;-84
2023/10/18 06:59:26;;;;;;;1313.17;441.17;;;4.90;99.90;;;;;;5156293;27;20042;-81
2023/10/18 07:01:55;;;;;;;1356.47;501.20;;;4.90;99.90;;;;;;5135959;27;20043;-83
2023/10/18 07:04:28;;;;;;;1315.07;435.67;;;5.60;99.90;;;;;;5135998;27;20043;-84
2023/10/18 07:06:57;;;;;;;1319.87;439.77;;;5.40;99.90;;;;;;5117223;27;20045;-84
2023/10/18 07:09:26;;;;;;;1367.27;502.47;;;5.70;99.90;;;;;;5135392;27;20043;-83
2023/10/18 07:12:00;;;;;;;1366.87;495.47;;;5.20;99.90;;;;;;5140992;27;20047;-84
2023/10/18 07:14:32;;;;;;;1321.63;440.33;;;5.90;99.90;;;;;;5156283;27;20042;-83
2023/10/18 07:17:02;;;;;;;1320.53;439.67;;;5.30;99.90;;;;;;5137898;27;20075;-83
2023/10/18 07:19:33;;;;;;;1333.17;449.00;;;4.10;99.90;;;;;;5137734;27;20043;-82
2023/10/18 07:22:00;;;;;;;1328.27;445.80;;;6.30;99.90;;;;;;5155810;27;20050;-83
2023/10/18 07:24:32;;;;;;;1330.67;442.63;;;5.80;99.90;;;;;;5155872;27;20454;-82
2023/10/18 07:26:59;;;;;;;1378.43;502.57;;;6.40;99.90;;;;;;5155940;27;20046;-84
2023/10/18 07:29:27;;;;;;;1333.37;444.93;;;6.50;99.90;;;;;;5156455;27;20399;-83
2023/10/18 07:31:59;;;;;;;1340.17;451.33;;;6.40;99.90;;;;;;5133855;27;20055;-81
2023/10/18 07:34:36;;;;;;;1386.07;505.53;;;5.70;99.90;;;;;;5117039;27;20039;-82
2023/10/18 07:37:24;;;;;;;1341.93;451.03;;;5.70;99.90;;;;;;5135010;27;20039;-83
2023/10/18 07:39:56;;;;;;;1345.70;450.63;;;6.60;99.90;;;;;;5116311;27;20564;-81
2023/10/18 07:42:22;;;;;;;1391.93;501.37;;;6.00;99.90;;;;;;5134973;27;20046;-81
2023/10/18 07:44:55;;;;;;;1351.63;451.30;;;6.90;99.90;;;;;;5135110;27;20035;-82
2023/10/18 07:47:25;;;;;;;1411.53;503.60;;;6.20;99.90;;;;;;5154118;27;20049;-83
2023/10/18 07:49:55;;;;;;;1408.00;500.60;;;6.20;99.90;;;;;;5155592;27;20479;-82
2023/10/18 07:52:21;;;;;;;1363.17;451.00;;;7.10;99.90;;;;;;5155447;27;20042;-82
2023/10/18 07:54:48;;;;;;;1422.70;505.73;;;6.20;99.90;;;;;;5119832;27;20486;-81
2023/10/18 07:57:17;;;;;;;1373.00;460.00;;;7.20;99.90;;;;;;5155338;27;20091;-81
2023/10/18 07:59:47;;;;;;;1425.13;509.83;;;7.30;99.90;;;;;;5155340;27;20057;-82
2023/10/18 08:02:23;;;;;;;1425.90;509.33;;;7.10;99.90;;;;;;5137041;27;20047;-81
2023/10/18 08:04:50;;;;;;;1427.88;508.80;;;7.50;99.90;;;;;;5155340;27;20038;-81
2023/10/18 08:07:19;;;;;;;1435.00;508.90;;;7.50;99.90;;;;;;5155057;27;20394;-81
2023/10/18 08:09:48;;;;;;;1379.37;459.27;;;7.20;99.90;;;;;;5154004;27;20125;-81
2023/10/18 08:14:50;;;;;;;1397.23;459.80;;;7.10;99.90;;;;;;5155061;27;20185;-83
2023/10/18 08:20:29;;;;;;;1394.57;457.20;;;7.00;99.90;;;;;;5154976;27;20043;-82
2023/10/18 08:22:44;;;;;;;1461.80;511.73;;;8.10;99.90;;;;;;5154800;27;20050;-82
2023/10/18 08:25:21;;;;;;;1409.67;466.63;;;7.50;99.90;;;;;;5136229;27;20126;-82
2023/10/18 08:27:53;;;;;;;1403.90;469.60;;;7.90;99.90;;;;;;5154996;27;20046;-82
2023/10/18 08:33:05;;;;;;;1409.87;466.17;;;8.20;99.90;;;;;;5154672;27;20050;-82
2023/10/18 08:35:31;;;;;;;1421.07;468.00;;;7.50;99.90;;;;;;5154504;27;20082;-82
2023/10/18 08:38:01;;;;;;;1485.33;514.87;;;8.20;99.90;;;;;;5135574;27;20039;-81
2023/10/18 08:40:28;;;;;;;1411.67;465.93;;;8.20;99.90;;;;;;5154896;27;20042;-82
2023/10/18 08:43:12;;;;;;;1421.17;474.17;;;8.70;99.90;;;;;;5136077;27;20462;-82
2023/10/18 08:45:45;;;;;;;1488.00;519.13;;;7.80;99.90;;;;;;5136000;27;20046;-83
2023/10/18 08:48:16;;;;;;;1412.53;477.13;;;7.80;99.90;;;;;;5154459;27;20049;-81
2023/10/18 08:50:42;;;;;;;1478.63;518.87;;;7.80;99.90;;;;;;5136005;27;20042;-82
2023/10/18 08:53:10;;;;;;;1481.70;519.87;;;7.90;99.90;;;;;;5154457;27;20078;-82
2023/10/18 08:55:45;;;;;;;1414.77;480.10;;;7.90;99.90;;;;;;5154394;27;20122;-81
2023/10/18 08:58:22;;;;;;;1474.57;519.67;;;8.90;99.90;;;;;;5135804;27;20502;-81
2023/10/18 09:03:24;;;;;;;1405.10;480.67;;;8.80;99.90;;;;;;5154211;27;20471;-82
2023/10/18 09:06:04;;;;;;;1403.83;478.13;;;8.80;99.90;;;;;;5154224;27;20038;-83
2023/10/18 09:09:00;;;;;;;1477.70;522.63;;;8.10;99.90;;;;;;5118654;27;20475;-82
2023/10/18 09:11:24;;;;;;;1484.97;525.20;;;8.10;99.90;;;;;;5153327;27;20104;-83
2023/10/18 09:16:40;;;;;;;1484.30;521.90;;;8.60;99.90;;;;;;5154172;27;20053;-82
2023/10/18 09:19:07;;;;;;;1492.27;526.20;;;8.90;99.90;;;;;;5135592;27;20043;-82
2023/10/18 09:21:36;;;;;;;1428.53;496.13;;;9.20;99.90;;;;;;5158304;27;20034;-82
2023/10/18 09:24:06;;;;;;;1498.80;529.93;;;8.90;99.90;;;;;;5158725;27;20039;-81
2023/10/18 09:26:41;;;;;;;1425.33;498.87;;;8.40;99.90;;;;;;5158467;27;20046;-81
2023/10/18 09:29:10;;;;;;;1494.90;528.10;;;8.50;99.90;;;;;;5158280;27;20509;-82
2023/10/18 09:31:52;;;;;;;1418.50;491.70;;;8.50;99.90;;;;;;5139677;27;20043;-82
2023/10/18 09:34:19;;;;;;;1424.03;496.07;;;8.70;99.90;;;;;;5139507;27;20082;-83
2023/10/18 09:36:56;;;;;;;1423.10;498.07;;;9.30;99.90;;;;;;5158098;27;20107;-81
2023/10/18 09:39:24;;;;;;;1424.70;501.27;;;8.70;99.90;;;;;;5158250;27;20420;-84
2023/10/18 09:41:50;;;;;;;1427.70;502.37;;;8.30;99.90;;;;;;5158104;27;20352;-84
2023/10/18 09:44:18;;;;;;;1432.23;502.43;;;9.30;99.90;;;;;;5139378;27;20150;-83
2023/10/18 09:46:48;;;;;;;1438.80;496.23;;;9.60;99.90;;;;;;5157937;27;20123;-84
2023/10/18 09:49:24;;;;;;;1429.27;506.13;;;8.80;99.90;;;;;;5158106;27;20066;-82
2023/10/18 09:51:53;;;;;;;1493.53;528.43;;;8.80;99.90;;;;;;5139525;27;20075;-82
2023/10/18 09:54:22;;;;;;;1495.93;534.73;;;9.20;99.90;;;;;;5139439;27;20099;-85
2023/10/18 09:56:56;;;;;;;1499.67;528.07;;;9.90;99.90;;;;;;5157881;27;20077;-81
2023/10/18 09:59:26;;;;;;;1444.73;508.10;;;9.30;99.90;;;;;;5139180;27;20058;-83
2023/10/18 10:02:00;;;;;;;1516.23;530.47;;;9.10;99.90;;;;;;5157638;27;20056;-83
2023/10/18 10:04:32;;;;;;;1452.10;516.63;;;9.90;99.90;;;;;;5157825;27;20043;-84
2023/10/18 10:09:47;;;;;;;1508.57;532.43;;;9.30;99.90;;;;;;5157675;27;20090;-82
2023/10/18 10:12:17;;;;;;;1446.30;515.47;;;9.40;99.90;;;;;;5156938;27;20084;-82
2023/10/18 10:14:44;;;;;;;1513.63;534.47;;;9.50;99.90;;;;;;5157001;27;20502;-82
2023/10/18 10:17:17;;;;;;;1506.40;534.00;;;9.90;99.90;;;;;;5139162;27;20157;-83
2023/10/18 10:19:48;;;;;;;1432.43;516.17;;;9.60;99.90;;;;;;5121618;27;20050;-82
2023/10/18 10:22:17;;;;;;;1434.43;512.87;;;10.30;99.90;;;;;;5138856;27;20089;-87
2023/10/18 10:24:53;;;;;;;1434.73;521.83;;;10.20;99.90;;;;;;5138764;27;20490;-85
2023/10/18 10:27:28;;;;;;;1505.03;537.60;;;9.80;99.90;;;;;;5138117;27;20046;-84
2023/10/18 10:29:58;;;;;;;1433.80;522.47;;;9.90;99.90;;;;;;5159824;27;20482;-85
2023/10/18 10:32:24;;;;;;;1439.73;526.33;;;10.40;99.90;;;;;;5141126;27;20512;-84
2023/10/18 10:35:17;;;;;;;1514.47;541.80;;;10.10;99.90;;;;;;5159279;27;20401;-83
2023/10/18 10:38:13;;;;;;;1513.37;540.37;;;10.20;99.90;;;;;;5159386;27;20097;-83
2023/10/18 10:40:48;;;;;;;1440.85;526.00;;;10.20;99.90;;;;;;5177958;27;20398;-83
2023/10/18 10:43:18;;;;;;;1521.93;535.38;;;10.50;99.90;;;;;;5149158;27;20035;-83
2023/10/18 10:50:56;;;;;;;1457.40;532.23;;;10.50;99.90;;;;;;5156648;27;20475;-83
2023/10/18 10:53:34;;;;;;;1459.67;530.33;;;10.50;99.90;;;;;;5156014;27;20424;-84
2023/10/18 10:56:32;;;;;;;1462.47;531.83;;;10.60;99.90;;;;;;5138167;27;20039;-83
2023/10/18 10:59:09;;;;;;;1539.63;539.63;;;10.60;99.90;;;;;;5035870;28;20139;-84
2023/10/18 11:04:46;;;;;;;1556.93;539.43;;;10.70;99.90;;;;;;5035393;28;20059;-85
2023/10/18 11:07:21;;;;;;;1470.83;540.17;;;10.80;99.90;;;;;;5041103;28;20524;-84
2023/10/18 11:09:48;;;;;;;1555.55;543.60;;;10.80;99.90;;;;;;5035411;28;20064;-85
2023/10/18 11:12:14;;;;;;;1551.90;542.97;;;11.00;99.90;;;;;;5035475;28;20044;-84
2023/10/18 11:14:44;;;;;;;1563.50;542.63;;;10.90;99.90;;;;;;5035568;28;20045;-84
2023/10/18 11:19:51;;;;;;;1581.57;548.37;;;11.20;99.90;;;;;;5036358;28;20076;-83
2023/10/18 11:22:21;;;;;;;1482.30;541.93;;;11.00;99.90;;;;;;5035315;28;20049;-85
2023/10/18 11:24:51;;;;;;;1568.93;549.20;;;11.00;99.90;;;;;;5052125;28;20041;-83
2023/10/18 11:27:21;;;;;;;1567.00;547.57;;;11.00;99.90;;;;;;5068178;28;20044;-84
2023/10/18 11:29:52;;;;;;;1554.07;543.73;;;11.10;99.90;;;;;;5055656;28;20122;-83
2023/10/18 11:32:18;;;;;;;1556.10;545.30;;;11.10;99.90;;;;;;5071930;28;20094;-84
2023/10/18 11:34:47;;;;;;;1464.10;544.13;;;11.10;99.90;;;;;;5099589;27;20050;-85
2023/10/18 11:39:57;;;;;;;1553.33;550.30;;;11.10;99.90;;;;;;5155717;27;20057;-83
2023/10/18 11:42:23;;;;;;;1550.57;547.27;;;11.20;99.90;;;;;;5119404;27;20043;-84
2023/10/18 11:44:53;;;;;;;1464.53;545.07;;;11.10;99.90;;;;;;5137212;27;20066;-83
2023/10/18 11:47:19;;;;;;;1462.77;550.07;;;11.10;99.90;;;;;;5155148;27;20054;-83
2023/10/18 11:49:53;;;;;;;1466.27;553.00;;;11.10;99.90;;;;;;5155523;27;20035;-83
2023/10/18 11:52:25;;;;;;;1465.20;548.20;;;11.10;99.90;;;;;;5155604;27;20113;-83
2023/10/18 11:54:52;;;;;;;1551.37;549.23;;;11.20;99.90;;;;;;5154284;27;20070;-83
2023/10/18 11:57:39;;;;;;;1555.13;549.53;;;11.40;99.90;;;;;;5155613;27;20043;-83
2023/10/18 12:03:08;;;;;;;1543.33;552.33;;;11.10;99.90;;;;;;5111928;28;20043;-83
2023/10/18 12:05:36;;;;;;;1541.03;544.40;;;11.20;99.90;;;;;;5111756;28;20570;-83
2023/10/18 12:08:05;;;;;;;1545.60;552.83;;;11.10;99.90;;;;;;5095046;28;20424;-83
2023/10/18 12:10:35;;;;;;;1458.20;570.97;;;11.10;99.90;;;;;;5094625;28;20058;-82
2023/10/18 12:13:05;;;;;;;1457.17;558.17;;;11.10;99.90;;;;;;5111650;28;20173;-83
2023/10/18 12:15:32;;;;;;;1544.67;550.57;;;11.10;99.90;;;;;;5094922;28;20044;-83
2023/10/18 12:18:01;;;;;;;1542.47;546.27;;;11.00;99.90;;;;;;5111579;28;20160;-82
2023/10/18 12:20:28;;;;;;;1541.73;541.00;;;11.00;99.90;;;;;;5111846;28;20074;-82
2023/10/18 12:22:54;;;;;;;1467.90;539.30;;;11.10;99.90;;;;;;5111787;28;20111;-81
2023/10/18 12:25:20;;;;;;;1463.83;543.13;;;11.00;99.90;;;;;;5111616;28;20517;-82
2023/10/18 12:27:52;;;;;;;1446.90;549.13;;;11.10;99.90;;;;;;5094618;28;20176;-82
2023/10/18 12:30:27;;;;;;;1441.87;553.03;;;11.00;99.90;;;;;;5111527;28;20452;-83
2023/10/18 12:32:57;;;;;;;1521.95;547.35;;;11.00;99.90;;;;;;5094661;28;20050;-82
2023/10/18 12:35:28;;;;;;;1442.80;544.50;;;11.00;99.90;;;;;;5111289;28;20134;-81
2023/10/18 12:37:54;;;;;;;1445.13;544.07;;;11.10;99.90;;;;;;5148277;27;20050;-82
2023/10/18 12:43:05;;;;;;;1446.55;557.53;;;11.10;99.90;;;;;;5154814;27;20042;-82
2023/10/18 12:45:42;;;;;;;1442.15;547.95;;;11.20;99.90;;;;;;5154662;27;20410;-82
2023/10/18 12:48:11;;;;;;;1520.03;552.40;;;11.10;99.90;;;;;;5154848;27;20049;-82
2023/10/18 12:50:44;;;;;;;1442.17;549.60;;;11.20;99.90;;;;;;5154805;27;20380;-83
2023/10/18 12:55:57;;;;;;;1523.00;552.00;;;11.20;99.90;;;;;;5153980;27;20050;-82
2023/10/18 12:58:30;;;;;;;1439.30;545.53;;;11.30;99.90;;;;;;5153487;27;20042;-82
2023/10/18 13:01:05;;;;;;;1518.73;547.97;;;11.30;99.90;;;;;;5154552;27;20482;-85
2023/10/18 13:03:37;;;;;;;1520.43;553.60;;;11.30;99.90;;;;;;5154479;27;20050;-84
2023/10/18 13:06:08;;;;;;;1525.30;557.07;;;11.50;99.90;;;;;;5154232;27;20096;-84
2023/10/18 13:08:37;;;;;;;1521.03;549.47;;;11.30;99.90;;;;;;5152886;27;20490;-84
2023/10/18 13:13:30;;;;;;;1525.73;557.27;;;11.30;99.90;;;;;;5152796;27;20122;-84
2023/10/18 13:15:59;;;;;;;1518.87;547.67;;;11.40;99.90;;;;;;5154305;27;20056;-83
2023/10/18 13:18:28;;;;;;;1519.10;550.83;;;11.30;99.90;;;;;;5153207;27;20081;-84
2023/10/18 13:21:05;;;;;;;1438.27;559.37;;;11.10;99.90;;;;;;5154305;27;20077;-83
2023/10/18 13:23:31;;;;;;;1439.40;568.27;;;11.30;99.90;;;;;;5154584;27;20058;-84
2023/10/18 13:25:57;;;;;;;1440.43;564.33;;;11.30;99.90;;;;;;5154435;27;20046;-84